createdAt,value
2018-10-17T00:00:23.441Z,101461.10
2018-10-17T00:02:54.663Z,101467.27
2018-10-17T00:05:23.660Z,101459.22
2018-10-17T00:07:53.526Z,101460.56
2018-10-17T00:10:23.657Z,101457.94
2018-10-17T00:12:52.995Z,101457.78
2018-10-17T00:15:22.598Z,101452.62
2018-10-17T00:17:52.569Z,101458.29
2018-10-17T00:20:21.717Z,101464.49
2018-10-17T00:22:51.144Z,101458.11
2018-10-17T00:25:20.238Z,101461.30
2018-10-17T00:27:50.177Z,101459.63
2018-10-17T00:30:19.829Z,101462.31
2018-10-17T00:32:49.907Z,101456.66
2018-10-17T00:35:19.353Z,101456.66
2018-10-17T00:37:49.583Z,101462.31
2018-10-17T00:40:18.568Z,101454.27
2018-10-17T00:42:48.149Z,101457.84
2018-10-17T00:45:17.228Z,101460.70
2018-10-17T00:47:46.808Z,101449.64
2018-10-17T00:50:16.888Z,101449.64
2018-10-17T00:52:46.909Z,101455.06
2018-10-17T00:55:16.303Z,101458.27
2018-10-17T00:57:45.650Z,101455.80
2018-10-17T01:00:17.024Z,101444.41
2018-10-17T01:02:47.082Z,101449.09
2018-10-17T01:05:18.160Z,101450.78
2018-10-17T01:07:48.206Z,101455.31
2018-10-17T01:10:17.692Z,101453.97
2018-10-17T01:12:47.414Z,101450.84
2018-10-17T01:15:17.586Z,101449.52
2018-10-17T01:17:47.278Z,101447.19
2018-10-17T01:20:17.384Z,101452.55
2018-10-17T01:22:46.641Z,101451.92
2018-10-17T01:25:15.761Z,101444.88
2018-10-17T01:27:45.477Z,101446.91
2018-10-17T01:30:14.478Z,101440.76
2018-10-17T01:32:43.753Z,101448.31
2018-10-17T01:35:13.152Z,101448.82
2018-10-17T01:37:43.443Z,101448.82
2018-10-17T01:40:12.389Z,101451.00
2018-10-17T01:42:43.188Z,101453.67
2018-10-17T01:45:13.322Z,101454.01
2018-10-17T01:47:42.762Z,101453.00
2018-10-17T01:50:12.823Z,101454.34
2018-10-17T01:52:42.826Z,101456.34
2018-10-17T01:55:12.012Z,101457.86
2018-10-17T01:57:41.534Z,101456.67
2018-10-17T02:00:11.414Z,101447.13
2018-10-17T02:02:41.098Z,101446.64
2018-10-17T02:05:10.157Z,101446.34
2018-10-17T02:07:39.830Z,101452.72
2018-10-17T02:10:09.540Z,101456.08
2018-10-17T02:12:39.450Z,101446.69
2018-10-17T02:15:08.645Z,101456.93
2018-10-17T02:17:37.542Z,101448.76
2018-10-17T02:20:07.453Z,101449.77
2018-10-17T02:22:36.859Z,101446.42
2018-10-17T02:25:07.435Z,101442.06
2018-10-17T02:27:36.438Z,101442.41
2018-10-17T02:30:06.146Z,101444.75
2018-10-17T02:32:34.981Z,101441.13
2018-10-17T02:35:09.848Z,101442.52
2018-10-17T02:37:38.738Z,101439.17
2018-10-17T02:40:08.317Z,101443.86
2018-10-17T02:42:38.053Z,101437.67
2018-10-17T02:45:08.271Z,101438.38
2018-10-17T02:47:39.209Z,101437.20
2018-10-17T02:50:14.874Z,101443.58
2018-10-17T02:52:43.967Z,101449.95
2018-10-17T02:55:14.626Z,101447.94
2018-10-17T02:57:43.595Z,101449.95
2018-10-17T03:00:13.471Z,101450.13
2018-10-17T03:02:43.446Z,101457.16
2018-10-17T03:05:13.391Z,101446.26
2018-10-17T03:07:43.105Z,101448.11
2018-10-17T03:10:12.106Z,101447.09
2018-10-17T03:12:41.512Z,101443.91
2018-10-17T03:15:11.108Z,101441.56
2018-10-17T03:17:41.047Z,101440.94
2018-10-17T03:20:11.427Z,101434.59
2018-10-17T03:22:40.622Z,101441.62
2018-10-17T03:25:10.662Z,101441.28
2018-10-17T03:27:39.928Z,101450.84
2018-10-17T03:30:09.395Z,101448.16
2018-10-17T03:32:39.090Z,101449.33
2018-10-17T03:35:09.511Z,101450.17
2018-10-17T03:37:38.755Z,101454.73
2018-10-17T03:40:08.677Z,101453.56
2018-10-17T03:42:37.888Z,101456.42
2018-10-17T03:45:07.968Z,101457.76
2018-10-17T03:47:38.731Z,101452.06
2018-10-17T03:50:08.623Z,101449.56
2018-10-17T03:52:38.552Z,101452.74
2018-10-17T03:55:08.154Z,101453.75
2018-10-17T03:57:39.255Z,101455.77
2018-10-17T04:00:09.967Z,101456.97
2018-10-17T04:02:39.302Z,101454.46
2018-10-17T04:05:09.752Z,101459.16
2018-10-17T04:07:39.646Z,101457.98
2018-10-17T04:10:09.291Z,101464.88
2018-10-17T04:12:38.751Z,101457.34
2018-10-17T04:15:09.155Z,101459.83
2018-10-17T04:17:39.401Z,101463.84
2018-10-17T04:20:09.592Z,101473.22
2018-10-17T04:22:43.067Z,101471.08
2018-10-17T04:25:12.754Z,101470.54
2018-10-17T04:27:42.141Z,101476.60
2018-10-17T04:30:11.888Z,101476.60
2018-10-17T04:32:41.794Z,101480.62
2018-10-17T04:35:11.432Z,101478.61
2018-10-17T04:37:41.088Z,101475.09
2018-10-17T04:40:10.953Z,101485.64
2018-10-17T04:42:40.961Z,101478.65
2018-10-17T04:45:10.520Z,101482.33
2018-10-17T04:47:39.605Z,101481.66
2018-10-17T04:50:10.193Z,101481.83
2018-10-17T04:52:40.824Z,101486.35
2018-10-17T04:55:11.367Z,101486.52
2018-10-17T04:57:41.216Z,101489.70
2018-10-17T05:00:13.474Z,101489.20
2018-10-17T05:02:44.355Z,101480.70
2018-10-17T05:05:13.947Z,101486.55
2018-10-17T05:07:43.436Z,101483.55
2018-10-17T05:10:12.989Z,101483.70
2018-10-17T05:12:42.191Z,101486.59
2018-10-17T05:15:11.968Z,101488.59
2018-10-17T05:17:41.524Z,101489.77
2018-10-17T05:20:11.868Z,101488.42
2018-10-17T05:22:42.052Z,101491.11
2018-10-17T05:25:11.091Z,101498.80
2018-10-17T05:27:41.067Z,101501.34
2018-10-17T05:30:10.665Z,101493.48
2018-10-17T05:32:40.205Z,101490.30
2018-10-17T05:35:10.168Z,101487.12
2018-10-17T05:37:39.361Z,101493.14
2018-10-17T05:40:09.439Z,101492.64
2018-10-17T05:42:39.688Z,101495.48
2018-10-17T05:45:09.387Z,101502.18
2018-10-17T05:47:38.743Z,101501.84
2018-10-17T05:50:08.850Z,101510.88
2018-10-17T05:52:39.352Z,101507.87
2018-10-17T05:55:08.527Z,101503.84
2018-10-17T05:57:38.770Z,101503.34
2018-10-17T06:00:08.553Z,101512.72
2018-10-17T06:02:38.833Z,101515.23
2018-10-17T06:05:09.643Z,101516.06
2018-10-17T06:07:40.321Z,101518.24
2018-10-17T06:10:10.635Z,101528.28
2018-10-17T06:12:41.458Z,101519.92
2018-10-17T06:15:11.626Z,101524.27
2018-10-17T06:17:41.992Z,101526.61
2018-10-17T06:20:13.224Z,101519.27
2018-10-17T06:22:42.967Z,101521.31
2018-10-17T06:25:12.278Z,101524.98
2018-10-17T06:27:42.355Z,101530.84
2018-10-17T06:30:11.939Z,101539.20
2018-10-17T06:32:41.625Z,101540.34
2018-10-17T06:35:11.349Z,101532.36
2018-10-17T06:37:41.625Z,101538.05
2018-10-17T06:40:11.214Z,101536.38
2018-10-17T06:42:40.587Z,101543.59
2018-10-17T06:45:10.540Z,101540.55
2018-10-17T06:47:41.131Z,101534.36
2018-10-17T06:50:10.749Z,101539.41
2018-10-17T06:52:40.279Z,101536.42
2018-10-17T06:55:09.799Z,101537.59
2018-10-17T06:57:40.398Z,101540.78
2018-10-17T07:00:10.431Z,101534.42
2018-10-17T07:02:40.482Z,101538.08
2018-10-17T07:05:10.725Z,101541.61
2018-10-17T07:07:40.497Z,101546.11
2018-10-17T07:10:11.007Z,101538.25
2018-10-17T07:12:41.461Z,101537.56
2018-10-17T07:15:11.506Z,101535.05
2018-10-17T07:17:40.666Z,101533.02
2018-10-17T07:20:10.652Z,101532.34
2018-10-17T07:22:40.718Z,101532.33
2018-10-17T07:25:10.465Z,101534.67
2018-10-17T07:27:40.563Z,101535.50
2018-10-17T07:30:10.850Z,101543.01
2018-10-17T07:32:40.539Z,101541.34
2018-10-17T07:35:11.216Z,101539.61
2018-10-17T07:37:41.188Z,101539.92
2018-10-17T07:40:10.136Z,101538.55
2018-10-17T07:42:39.744Z,101540.06
2018-10-17T07:45:09.020Z,101536.20
2018-10-17T07:47:38.742Z,101532.36
2018-10-17T07:50:09.016Z,101534.16
2018-10-17T07:52:39.200Z,101530.11
2018-10-17T07:55:09.748Z,101538.15
2018-10-17T07:57:39.423Z,101532.24
2018-10-17T08:00:14.139Z,101530.86
2018-10-17T08:02:43.631Z,101531.48
2018-10-17T08:05:14.490Z,101533.28
2018-10-17T08:07:44.948Z,101531.94
2018-10-17T08:10:14.140Z,101534.06
2018-10-17T08:12:44.329Z,101535.69
2018-10-17T08:15:13.391Z,101533.12
2018-10-17T08:17:42.617Z,101532.61
2018-10-17T08:20:13.323Z,101533.34
2018-10-17T08:22:43.266Z,101531.95
2018-10-17T08:25:13.593Z,101536.06
2018-10-17T08:27:43.767Z,101533.20
2018-10-17T08:30:13.497Z,101530.12
2018-10-17T08:32:42.932Z,101533.41
2018-10-17T08:35:12.709Z,101536.02
2018-10-17T08:37:42.067Z,101532.88
2018-10-17T08:40:11.695Z,101533.43
2018-10-17T08:42:41.168Z,101531.47
2018-10-17T08:45:11.235Z,101532.98
2018-10-17T08:47:40.984Z,101535.43
2018-10-17T08:50:10.848Z,101531.56
2018-10-17T08:52:40.157Z,101541.20
2018-10-17T08:55:10.625Z,101534.64
2018-10-17T08:57:40.959Z,101534.67
2018-10-17T09:00:10.420Z,101534.30
2018-10-17T09:02:40.499Z,101535.34
2018-10-17T09:05:09.541Z,101538.38
2018-10-17T09:07:40.234Z,101540.58
2018-10-17T09:10:10.050Z,101530.20
2018-10-17T09:12:40.034Z,101531.15
2018-10-17T09:15:09.681Z,101532.04
2018-10-17T09:17:39.476Z,101532.59
2018-10-17T09:20:09.504Z,101533.86
2018-10-17T09:22:39.043Z,101538.68
2018-10-17T09:25:09.317Z,101532.32
2018-10-17T09:27:39.004Z,101534.03
2018-10-17T09:30:09.958Z,101531.98
2018-10-17T09:32:43.591Z,101528.92
2018-10-17T09:35:13.017Z,101529.41
2018-10-17T09:37:43.187Z,101525.16
2018-10-17T09:40:13.048Z,101521.27
2018-10-17T09:42:42.147Z,101527.05
2018-10-17T09:45:11.991Z,101526.48
2018-10-17T09:47:41.852Z,101521.55
2018-10-17T09:50:11.921Z,101518.48
2018-10-17T09:52:41.218Z,101524.02
2018-10-17T09:55:12.065Z,101518.75
2018-10-17T09:57:41.729Z,101521.55
2018-10-17T10:00:16.272Z,101526.42
2018-10-17T10:02:45.568Z,101523.34
2018-10-17T10:05:14.623Z,101520.32
2018-10-17T10:07:43.786Z,101522.82
2018-10-17T10:10:12.737Z,101521.56
2018-10-17T10:12:42.158Z,101521.83
2018-10-17T10:15:12.165Z,101521.00
2018-10-17T10:17:41.367Z,101516.95
2018-10-17T10:20:12.117Z,101510.72
2018-10-17T10:22:41.125Z,101513.66
2018-10-17T10:25:10.362Z,101503.37
2018-10-17T10:27:40.141Z,101502.41
2018-10-17T10:30:10.421Z,101501.37
2018-10-17T10:32:40.287Z,101496.80
2018-10-17T10:35:10.135Z,101498.59
2018-10-17T10:37:39.846Z,101492.14
2018-10-17T10:40:09.938Z,101491.69
2018-10-17T10:42:39.396Z,101492.95
2018-10-17T10:45:08.987Z,101491.70
2018-10-17T10:47:38.731Z,101489.94
2018-10-17T10:50:09.702Z,101485.55
2018-10-17T10:52:39.778Z,101483.80
2018-10-17T10:55:08.756Z,101481.25
2018-10-17T10:57:38.103Z,101476.36
2018-10-17T11:00:08.499Z,101474.22
2018-10-17T11:02:37.471Z,101471.77
2018-10-17T11:05:06.589Z,101468.64
2018-10-17T11:07:36.506Z,101465.58
2018-10-17T11:10:05.996Z,101466.59
2018-10-17T11:12:35.859Z,101464.03
2018-10-17T11:15:06.001Z,101465.48
2018-10-17T11:17:34.877Z,101455.31
2018-10-17T11:20:04.256Z,101457.41
2018-10-17T11:22:33.223Z,101456.20
2018-10-17T11:25:04.571Z,101458.34
2018-10-17T11:27:33.884Z,101460.61
2018-10-17T11:30:02.896Z,101461.43
2018-10-17T11:32:31.834Z,101456.85
2018-10-17T11:35:08.030Z,101459.83
2018-10-17T11:37:38.627Z,101458.33
2018-10-17T11:40:08.156Z,101453.80
2018-10-17T11:42:37.286Z,101459.94
2018-10-17T11:45:07.105Z,101449.78
2018-10-17T11:47:36.383Z,101455.81
2018-10-17T11:50:07.109Z,101446.66
2018-10-17T11:52:36.160Z,101451.17
2018-10-17T11:55:05.431Z,101444.83
2018-10-17T11:57:34.687Z,101446.59
2018-10-17T12:00:04.295Z,101450.97
2018-10-17T12:02:33.594Z,101447.47
2018-10-17T12:05:03.153Z,101433.11
2018-10-17T12:07:32.618Z,101438.69
2018-10-17T12:10:03.290Z,101439.31
2018-10-17T12:12:32.295Z,101439.31
2018-10-17T12:15:01.293Z,101434.11
2018-10-17T12:17:31.213Z,101439.11
2018-10-17T12:20:01.104Z,101433.11
2018-10-17T12:22:30.962Z,101427.73
2018-10-17T12:25:01.312Z,101428.04
2018-10-17T12:27:30.544Z,101422.32
2018-10-17T12:30:00.757Z,101424.95
2018-10-17T12:32:29.954Z,101422.98
2018-10-17T12:35:00.404Z,101424.16
2018-10-17T12:37:29.945Z,101422.57
2018-10-17T12:39:59.874Z,101416.32
2018-10-17T12:42:29.679Z,101418.16
2018-10-17T12:45:00.049Z,101417.11
2018-10-17T12:47:29.727Z,101417.74
2018-10-17T12:49:59.588Z,101420.37
2018-10-17T12:52:30.235Z,101416.74
2018-10-17T12:54:59.179Z,101421.59
2018-10-17T12:57:29.208Z,101417.84
2018-10-17T12:59:59.200Z,101411.18
2018-10-17T13:02:28.424Z,101412.60
2018-10-17T13:04:58.297Z,101417.28
2018-10-17T13:07:28.966Z,101410.83
2018-10-17T13:09:59.300Z,101410.98
2018-10-17T13:12:28.908Z,101413.06
2018-10-17T13:14:58.917Z,101413.48
2018-10-17T13:17:28.668Z,101407.39
2018-10-17T13:19:58.588Z,101416.34
2018-10-17T13:22:27.976Z,101410.09
2018-10-17T13:24:58.362Z,101409.64
2018-10-17T13:27:28.776Z,101404.70
2018-10-17T13:29:58.915Z,101408.45
2018-10-17T13:32:28.592Z,101408.17
2018-10-17T13:34:59.579Z,101411.61
2018-10-17T13:37:30.170Z,101404.84
2018-10-17T13:40:01.702Z,101401.78
2018-10-17T13:42:31.350Z,101403.87
2018-10-17T13:45:00.689Z,101397.47
2018-10-17T13:47:29.730Z,101398.51
2018-10-17T13:49:58.602Z,101402.05
2018-10-17T13:52:27.983Z,101394.64
2018-10-17T13:54:57.506Z,101398.51
2018-10-17T13:57:26.633Z,101395.69
2018-10-17T13:59:56.299Z,101396.32
2018-10-17T14:02:25.529Z,101399.44
2018-10-17T14:04:55.783Z,101391.62
2018-10-17T14:07:25.960Z,101388.61
2018-10-17T14:09:56.364Z,101389.39
2018-10-17T14:12:26.514Z,101391.36
2018-10-17T14:14:56.991Z,101382.79
2018-10-17T14:17:26.025Z,101385.50
2018-10-17T14:19:56.994Z,101387.52
2018-10-17T14:22:26.560Z,101389.25
2018-10-17T14:24:55.568Z,101387.31
2018-10-17T14:27:25.961Z,101391.58
2018-10-17T14:29:55.945Z,101393.36
2018-10-17T14:32:24.915Z,101392.05
2018-10-17T14:34:54.302Z,101398.75
2018-10-17T14:37:24.188Z,101391.06
2018-10-17T14:39:53.004Z,101403.06
2018-10-17T14:42:23.095Z,101396.20
2018-10-17T14:44:51.882Z,101399.84
2018-10-17T14:47:20.707Z,101402.34
2018-10-17T14:49:49.791Z,101405.78
2018-10-17T14:52:18.603Z,101402.48
2018-10-17T14:54:47.539Z,101410.29
2018-10-17T14:57:18.010Z,101408.00
2018-10-17T14:59:47.635Z,101410.33
2018-10-17T15:02:17.483Z,101407.14
2018-10-17T15:04:47.338Z,101407.56
2018-10-17T15:07:17.093Z,101409.89
2018-10-17T15:09:47.574Z,101414.53
2018-10-17T15:12:18.263Z,101407.60
2018-10-17T15:14:47.671Z,101414.19
2018-10-17T15:17:17.513Z,101412.63
2018-10-17T15:19:47.285Z,101420.11
2018-10-17T15:22:17.368Z,101411.12
2018-10-17T15:24:46.547Z,101410.50
2018-10-17T15:27:16.849Z,101415.80
2018-10-17T15:29:47.099Z,101416.97
2018-10-17T15:32:16.372Z,101413.77
2018-10-17T15:34:46.763Z,101416.29
2018-10-17T15:37:17.931Z,101417.03
2018-10-17T15:39:48.684Z,101419.23
2018-10-17T15:42:18.413Z,101413.61
2018-10-17T15:44:48.647Z,101421.84
2018-10-17T15:47:18.335Z,101422.56
2018-10-17T15:49:48.878Z,101424.63
2018-10-17T15:52:18.355Z,101426.11
2018-10-17T15:54:48.844Z,101425.68
2018-10-17T15:57:18.765Z,101427.35
2018-10-17T15:59:48.987Z,101432.76
2018-10-17T16:02:19.994Z,101427.88
2018-10-17T16:04:50.390Z,101433.60
2018-10-17T16:07:20.204Z,101426.59
2018-10-17T16:09:50.417Z,101436.87
2018-10-17T16:12:19.502Z,101432.94
2018-10-17T16:14:50.041Z,101432.42
2018-10-17T16:17:19.658Z,101431.36
2018-10-17T16:19:49.228Z,101433.33
2018-10-17T16:22:18.814Z,101436.94
2018-10-17T16:24:47.931Z,101437.89
2018-10-17T16:27:17.027Z,101442.84
2018-10-17T16:29:47.107Z,101442.75
2018-10-17T16:32:16.728Z,101445.02
2018-10-17T16:34:46.390Z,101443.26
2018-10-17T16:37:15.384Z,101437.23
2018-10-17T16:39:44.790Z,101436.28
2018-10-17T16:42:14.711Z,101443.44
2018-10-17T16:44:44.106Z,101437.93
2018-10-17T16:47:14.266Z,101446.22
2018-10-17T16:49:43.096Z,101447.98
2018-10-17T16:52:11.910Z,101444.34
2018-10-17T16:54:41.326Z,101447.45
2018-10-17T16:57:12.153Z,101454.58
2018-10-17T16:59:41.751Z,101455.81
2018-10-17T17:02:12.428Z,101463.80
2018-10-17T17:04:42.986Z,101460.47
2018-10-17T17:07:13.379Z,101463.23
2018-10-17T17:09:43.367Z,101470.20
2018-10-17T17:12:12.281Z,101468.91
2018-10-17T17:14:41.331Z,101471.20
2018-10-17T17:17:10.545Z,101474.28
2018-10-17T17:19:40.152Z,101470.11
2018-10-17T17:22:10.568Z,101472.67
2018-10-17T17:24:40.930Z,101476.59
2018-10-17T17:27:10.532Z,101473.77
2018-10-17T17:29:40.302Z,101472.33
2018-10-17T17:32:11.401Z,101471.69
2018-10-17T17:34:41.647Z,101475.41
2018-10-17T17:37:11.492Z,101476.66
2018-10-17T17:39:41.394Z,101472.48
2018-10-17T17:42:11.334Z,101476.72
2018-10-17T17:44:41.188Z,101473.06
2018-10-17T17:47:10.803Z,101473.80
2018-10-17T17:49:40.580Z,101464.75
2018-10-17T17:52:10.715Z,101466.10
2018-10-17T17:54:39.731Z,101471.39
2018-10-17T17:57:09.142Z,101469.40
2018-10-17T17:59:38.750Z,101470.11
2018-10-17T18:02:08.946Z,101471.64
2018-10-17T18:04:39.585Z,101465.64
2018-10-17T18:07:08.956Z,101474.75
2018-10-17T18:09:38.817Z,101470.90
2018-10-17T18:12:08.750Z,101473.97
2018-10-17T18:14:38.225Z,101472.11
2018-10-17T18:17:07.363Z,101474.19
2018-10-17T18:19:37.198Z,101473.55
2018-10-17T18:22:06.212Z,101471.88
2018-10-17T18:24:35.187Z,101474.77
2018-10-17T18:27:04.639Z,101474.44
2018-10-17T18:29:33.345Z,101477.03
2018-10-17T18:32:02.743Z,101473.51
2018-10-17T18:34:31.920Z,101482.09
2018-10-17T18:37:00.888Z,101477.41
2018-10-17T18:39:30.247Z,101477.60
2018-10-17T18:41:59.620Z,101484.23
2018-10-17T18:44:28.662Z,101485.58
2018-10-17T18:46:58.313Z,101480.25
2018-10-17T18:49:29.845Z,101477.23
2018-10-17T18:52:00.011Z,101489.02
2018-10-17T18:54:29.906Z,101484.42
2018-10-17T18:56:59.946Z,101488.55
2018-10-17T18:59:30.996Z,101487.25
2018-10-17T19:02:00.127Z,101488.27
2018-10-17T19:04:30.160Z,101485.59
2018-10-17T19:07:00.156Z,101484.97
2018-10-17T19:09:29.766Z,101485.98
2018-10-17T19:11:59.606Z,101484.32
2018-10-17T19:14:29.793Z,101486.04
2018-10-17T19:17:00.052Z,101487.39
2018-10-17T19:19:29.367Z,101487.39
2018-10-17T19:21:58.766Z,101492.77
2018-10-17T19:24:27.847Z,101492.16
2018-10-17T19:26:57.043Z,101498.05
2018-10-17T19:29:26.318Z,101497.02
2018-10-17T19:31:55.258Z,101498.73
2018-10-17T19:34:24.207Z,101499.33
2018-10-17T19:36:53.301Z,101506.06
2018-10-17T19:39:22.846Z,101502.39
2018-10-17T19:41:52.082Z,101505.27
2018-10-17T19:44:21.042Z,101509.71
2018-10-17T19:46:50.058Z,101511.56
2018-10-17T19:49:19.168Z,101511.58
2018-10-17T19:51:48.384Z,101512.67
2018-10-17T19:54:19.890Z,101513.55
2018-10-17T19:56:48.904Z,101513.48
2018-10-17T19:59:18.341Z,101508.00
2018-10-17T20:01:48.869Z,101518.35
2018-10-17T20:04:20.188Z,101520.09
2018-10-17T20:06:50.089Z,101517.92
2018-10-17T20:09:20.607Z,101514.25
2018-10-17T20:11:51.115Z,101514.25
2018-10-17T20:14:20.884Z,101510.91
2018-10-17T20:16:50.046Z,101510.08
2018-10-17T20:19:20.294Z,101512.26
2018-10-17T20:21:50.437Z,101512.47
2018-10-17T20:24:21.725Z,101516.22
2018-10-17T20:26:51.564Z,101509.89
2018-10-17T20:29:22.261Z,101511.75
2018-10-17T20:31:53.006Z,101508.08
2018-10-17T20:34:22.392Z,101507.42
2018-10-17T20:36:52.000Z,101506.41
2018-10-17T20:39:21.263Z,101505.79
2018-10-17T20:41:50.895Z,101509.17
2018-10-17T20:44:21.540Z,101517.56
2018-10-17T20:46:52.365Z,101518.58
2018-10-17T20:49:22.368Z,101513.20
2018-10-17T20:51:52.529Z,101510.19
2018-10-17T20:54:23.141Z,101512.94
2018-10-17T20:56:52.323Z,101510.05
2018-10-17T20:59:21.960Z,101505.06
2018-10-17T21:01:51.218Z,101499.87
2018-10-17T21:04:20.771Z,101506.95
2018-10-17T21:06:50.238Z,101506.70
2018-10-17T21:09:19.246Z,101503.35
2018-10-17T21:11:48.302Z,101502.73
2018-10-17T21:14:17.680Z,101503.75
2018-10-17T21:16:47.724Z,101505.27
2018-10-17T21:19:18.887Z,101507.63
2018-10-17T21:21:47.821Z,101511.40
2018-10-17T21:24:17.923Z,101506.20
2018-10-17T21:26:47.694Z,101502.75
2018-10-17T21:29:16.742Z,101508.16
2018-10-17T21:31:45.878Z,101508.73
2018-10-17T21:34:15.497Z,101505.53
2018-10-17T21:36:44.715Z,101507.05
2018-10-17T21:39:14.836Z,101512.61
2018-10-17T21:41:44.378Z,101511.95
2018-10-17T21:44:14.236Z,101507.47
2018-10-17T21:46:43.720Z,101510.19
2018-10-17T21:49:14.037Z,101499.66
2018-10-17T21:51:43.566Z,101498.61
2018-10-17T21:54:12.669Z,101495.30
2018-10-17T21:56:42.411Z,101501.84
2018-10-17T21:59:11.425Z,101503.63
2018-10-17T22:01:41.320Z,101493.89
2018-10-17T22:04:10.305Z,101505.03
2018-10-17T22:06:39.205Z,101497.33
2018-10-17T22:09:10.918Z,101491.13
2018-10-17T22:11:39.857Z,101497.00
2018-10-17T22:14:09.474Z,101494.50
2018-10-17T22:16:43.527Z,101493.88
2018-10-17T22:19:12.949Z,101492.20
2018-10-17T22:21:41.935Z,101491.88
2018-10-17T22:24:11.263Z,101492.73
2018-10-17T22:26:40.770Z,101496.28
2018-10-17T22:29:09.756Z,101490.64
2018-10-17T22:31:38.707Z,101492.94
2018-10-17T22:34:08.638Z,101497.34
2018-10-17T22:36:38.896Z,101492.01
2018-10-17T22:39:12.839Z,101497.88
2018-10-17T22:41:43.435Z,101502.47
2018-10-17T22:44:13.214Z,101496.44
2018-10-17T22:46:42.756Z,101505.84
2018-10-17T22:49:12.186Z,101505.69
2018-10-17T22:51:41.149Z,101512.91
2018-10-17T22:54:10.741Z,101513.62
2018-10-17T22:56:40.461Z,101511.94
2018-10-17T22:59:09.871Z,101516.80
2018-10-17T23:01:40.215Z,101515.64
2018-10-17T23:04:10.622Z,101508.27
2018-10-17T23:06:40.470Z,101512.47
2018-10-17T23:09:12.389Z,101500.27
2018-10-17T23:11:42.157Z,101501.28
2018-10-17T23:14:12.083Z,101498.32
2018-10-17T23:16:41.874Z,101498.32
2018-10-17T23:19:12.874Z,101495.43
2018-10-17T23:21:44.061Z,101501.97
2018-10-17T23:24:13.210Z,101496.98
2018-10-17T23:26:43.080Z,101495.64
2018-10-17T23:29:12.710Z,101494.98
2018-10-17T23:31:41.803Z,101497.68
2018-10-17T23:34:11.532Z,101497.56
2018-10-17T23:36:41.453Z,101492.70
2018-10-17T23:39:10.999Z,101490.02
2018-10-17T23:41:41.321Z,101492.19
2018-10-17T23:44:11.005Z,101495.73
2018-10-17T23:46:40.934Z,101493.09
2018-10-17T23:49:09.947Z,101492.27
2018-10-17T23:51:40.018Z,101493.94
2018-10-17T23:54:09.063Z,101491.76
2018-10-17T23:56:38.217Z,101494.61
2018-10-17T23:59:07.804Z,101497.14
